Time;durP1;ratioP1;P1;durP2;ratioP2;P2;SDS_P1;SDS_P2;PMS_P1;PMS_P2;Temp;Humidity;BMP_temperature;BMP_pressure;BME280_temperature;BME280_humidity;BME280_pressure;Samples;Min_cycle;Max_cycle;Signal;HPM_P1;HPM_P2
2021/01/01 00:01:14;;;;;;;25.83;19.70;;;;;;;;;;5095252;28;20569;-88
2021/01/01 00:03:41;;;;;;;21.70;15.63;;;;;;;;;;5095075;28;20176;-87
2021/01/01 00:06:11;;;;;;;25.23;18.00;;;;;;;;;;5095179;28;20180;-88
2021/01/01 00:08:38;;;;;;;20.73;16.40;;;;;;;;;;5096650;28;20244;-88
2021/01/01 00:11:05;;;;;;;27.07;18.60;;;;;;;;;;5096192;28;20212;-88
2021/01/01 00:13:31;;;;;;;26.33;18.90;;;;;;;;;;5096100;28;20298;-88
2021/01/01 00:15:57;;;;;;;30.53;19.43;;;;;;;;;;5094679;28;20178;-88
2021/01/01 00:18:28;;;;;;;28.57;20.37;;;;;;;;;;5094798;28;20183;-86
2021/01/01 00:20:54;;;;;;;28.60;19.93;;;;;;;;;;5094941;28;20206;-88
2021/01/01 00:23:25;;;;;;;34.83;21.23;;;;;;;;;;5095874;28;20282;-88
2021/01/01 00:25:51;;;;;;;29.57;21.47;;;;;;;;;;5094855;28;20179;-89
2021/01/01 00:28:18;;;;;;;27.27;18.57;;;;;;;;;;5095667;28;20196;-88
2021/01/01 00:30:44;;;;;;;20.17;14.10;;;;;;;;;;5094615;28;20562;-87
2021/01/01 00:33:13;;;;;;;27.83;19.40;;;;;;;;;;5096337;28;20229;-89
2021/01/01 00:35:43;;;;;;;30.53;19.23;;;;;;;;;;5094733;28;20254;-87
2021/01/01 00:38:11;;;;;;;30.60;19.93;;;;;;;;;;5094440;28;20178;-88
2021/01/01 00:40:38;;;;;;;29.90;19.07;;;;;;;;;;5095419;28;20680;-87
2021/01/01 00:43:04;;;;;;;22.90;14.93;;;;;;;;;;5094359;28;20186;-87
2021/01/01 00:45:33;;;;;;;28.27;19.60;;;;;;;;;;5093586;28;20178;-87
2021/01/01 00:48:00;;;;;;;28.13;21.63;;;;;;;;;;5093854;28;20199;-87
2021/01/01 00:50:29;;;;;;;27.10;20.20;;;;;;;;;;5095063;28;20240;-87
2021/01/01 00:53:02;;;;;;;33.93;22.27;;;;;;;;;;5093736;28;20182;-86
2021/01/01 00:55:31;;;;;;;27.33;19.60;;;;;;;;;;5093963;28;20523;-87
2021/01/01 00:58:00;;;;;;;26.83;18.97;;;;;;;;;;5093802;28;20659;-88
2021/01/01 01:00:31;;;;;;;26.13;19.10;;;;;;;;;;5095283;28;20273;-88
2021/01/01 01:02:57;;;;;;;26.50;20.40;;;;;;;;;;5095361;28;20523;-87
2021/01/01 01:05:27;;;;;;;18.43;14.50;;;;;;;;;;5093763;28;20664;-87
2021/01/01 01:07:57;;;;;;;21.83;16.37;;;;;;;;;;5093552;28;20613;-87
2021/01/01 01:10:25;;;;;;;28.43;20.00;;;;;;;;;;5094639;28;20288;-86
2021/01/01 01:12:52;;;;;;;26.07;17.27;;;;;;;;;;5093630;28;20654;-86
2021/01/01 01:15:20;;;;;;;29.73;20.57;;;;;;;;;;5094321;28;20185;-87
2021/01/01 01:17:46;;;;;;;26.10;18.60;;;;;;;;;;5093832;28;20582;-87
2021/01/01 01:20:13;;;;;;;25.27;18.90;;;;;;;;;;5093726;28;20197;-87
2021/01/01 01:22:46;;;;;;;32.70;21.07;;;;;;;;;;5094818;28;20203;-87
2021/01/01 01:25:18;;;;;;;17.73;13.90;;;;;;;;;;5093401;28;20186;-87
2021/01/01 01:27:44;;;;;;;30.57;22.40;;;;;;;;;;5094776;28;20566;-87
2021/01/01 01:30:10;;;;;;;29.70;20.00;;;;;;;;;;5093463;28;20277;-87
2021/01/01 01:32:38;;;;;;;20.23;15.20;;;;;;;;;;5093693;28;20172;-87
2021/01/01 01:35:06;;;;;;;27.00;19.40;;;;;;;;;;5094770;28;20674;-87
2021/01/01 01:37:40;;;;;;;28.97;20.73;;;;;;;;;;5093160;28;20180;-86
2021/01/01 01:40:15;;;;;;;26.83;19.10;;;;;;;;;;5093583;28;20199;-87
2021/01/01 01:42:50;;;;;;;28.53;20.50;;;;;;;;;;5092974;28;20206;-87
2021/01/01 01:45:25;;;;;;;29.13;18.20;;;;;;;;;;5093118;28;20204;-87
2021/01/01 01:48:00;;;;;;;28.47;20.07;;;;;;;;;;5094416;28;20203;-87
2021/01/01 01:50:28;;;;;;;30.23;20.63;;;;;;;;;;5093740;28;20205;-87
2021/01/01 01:53:01;;;;;;;29.53;21.80;;;;;;;;;;5092943;28;20660;-87
2021/01/01 01:55:35;;;;;;;33.97;20.63;;;;;;;;;;5092997;28;20224;-87
2021/01/01 01:58:09;;;;;;;31.37;19.50;;;;;;;;;;5092944;28;20271;-87
2021/01/01 02:03:21;;;;;;;30.57;20.77;;;;;;;;;;5094301;28;20166;-87
2021/01/01 02:05:55;;;;;;;31.43;21.30;;;;;;;;;;5093273;28;20181;-87
2021/01/01 02:08:28;;;;;;;27.93;20.40;;;;;;;;;;5092538;28;20228;-87
2021/01/01 02:11:06;;;;;;;31.87;21.77;;;;;;;;;;5125305;22;20236;-84
2021/01/01 02:13:38;;;;;;;29.70;22.20;;;;;;;;;;5114577;28;20166;-84
2021/01/01 02:16:15;;;;;;;32.27;21.73;;;;;;;;;;5113071;28;20263;-85
2021/01/01 02:18:45;;;;;;;28.70;20.43;;;;;;;;;;5113796;28;20226;-84
2021/01/01 02:21:18;;;;;;;35.13;24.10;;;;;;;;;;5114085;28;20222;-85
2021/01/01 02:23:51;;;;;;;32.80;23.23;;;;;;;;;;5114353;28;20177;-86
2021/01/01 02:26:19;;;;;;;35.97;23.37;;;;;;;;;;5113957;28;20170;-86
2021/01/01 02:28:49;;;;;;;26.40;18.83;;;;;;;;;;5114037;28;20173;-85
2021/01/01 02:31:19;;;;;;;35.00;22.90;;;;;;;;;;5112733;28;20214;-85
2021/01/01 02:33:51;;;;;;;29.60;20.63;;;;;;;;;;5113917;28;20186;-85
2021/01/01 02:36:25;;;;;;;26.10;17.57;;;;;;;;;;5114079;28;20293;-85
2021/01/01 02:38:54;;;;;;;28.93;20.43;;;;;;;;;;5114215;28;20174;-85
2021/01/01 02:41:30;;;;;;;28.37;19.33;;;;;;;;;;5112667;28;20189;-85
2021/01/01 02:44:01;;;;;;;32.70;21.97;;;;;;;;;;5114062;28;20175;-85
2021/01/01 02:46:27;;;;;;;30.60;22.37;;;;;;;;;;5112792;28;20230;-85
2021/01/01 02:48:59;;;;;;;31.23;19.83;;;;;;;;;;5114054;28;20179;-84
2021/01/01 02:51:30;;;;;;;30.77;20.97;;;;;;;;;;5113839;28;20190;-84
2021/01/01 02:54:00;;;;;;;33.90;21.13;;;;;;;;;;5113648;28;20659;-85
2021/01/01 02:56:29;;;;;;;33.40;22.43;;;;;;;;;;5113939;28;20168;-85
2021/01/01 02:59:01;;;;;;;30.47;21.70;;;;;;;;;;5112892;28;20210;-84
2021/01/01 03:01:29;;;;;;;34.07;20.70;;;;;;;;;;5113535;28;20250;-85
2021/01/01 03:04:01;;;;;;;29.33;20.53;;;;;;;;;;5113648;28;20644;-85
2021/01/01 03:06:35;;;;;;;35.13;23.87;;;;;;;;;;5113951;28;20202;-85
2021/01/01 03:09:02;;;;;;;32.87;22.70;;;;;;;;;;5117814;28;20642;-85
2021/01/01 03:11:32;;;;;;;37.53;23.40;;;;;;;;;;5116519;28;20208;-85
2021/01/01 03:14:01;;;;;;;41.33;25.90;;;;;;;;;;5117705;28;20163;-85
2021/01/01 03:16:35;;;;;;;32.00;23.33;;;;;;;;;;5117862;28;20186;-84
2021/01/01 03:19:08;;;;;;;35.17;24.90;;;;;;;;;;5116496;28;20173;-85
2021/01/01 03:21:46;;;;;;;33.63;22.87;;;;;;;;;;5116137;28;20196;-85
2021/01/01 03:24:12;;;;;;;34.30;23.57;;;;;;;;;;5116856;28;20552;-85
2021/01/01 03:26:45;;;;;;;37.53;24.60;;;;;;;;;;5116197;28;20203;-85
2021/01/01 03:29:16;;;;;;;33.50;22.97;;;;;;;;;;5116203;28;20517;-85
2021/01/01 03:31:51;;;;;;;34.70;24.10;;;;;;;;;;5117157;28;20206;-85
2021/01/01 03:34:26;;;;;;;39.00;25.70;;;;;;;;;;5116016;28;20173;-85
2021/01/01 03:36:58;;;;;;;38.67;24.97;;;;;;;;;;5115867;28;20174;-85
2021/01/01 03:39:30;;;;;;;34.67;24.43;;;;;;;;;;5117165;28;20209;-85
2021/01/01 03:42:01;;;;;;;36.53;25.13;;;;;;;;;;5117211;28;20203;-85
2021/01/01 03:44:35;;;;;;;36.60;25.87;;;;;;;;;;5117164;28;20182;-85
2021/01/01 03:47:09;;;;;;;37.57;24.20;;;;;;;;;;5117489;28;20258;-85
2021/01/01 03:49:40;;;;;;;38.17;25.60;;;;;;;;;;5115661;28;20172;-85
2021/01/01 03:52:15;;;;;;;37.83;25.27;;;;;;;;;;5115589;28;20215;-85
2021/01/01 03:54:47;;;;;;;38.27;25.27;;;;;;;;;;5115762;28;20173;-85
2021/01/01 03:57:18;;;;;;;35.17;25.30;;;;;;;;;;5115644;28;20168;-85
2021/01/01 03:59:48;;;;;;;38.00;26.03;;;;;;;;;;5115447;28;20173;-85
2021/01/01 04:02:21;;;;;;;37.93;26.60;;;;;;;;;;5117168;28;20196;-85
2021/01/01 04:04:50;;;;;;;42.33;26.13;;;;;;;;;;5117088;28;20167;-85
2021/01/01 04:07:25;;;;;;;39.53;27.90;;;;;;;;;;5116883;27;20276;-85
2021/01/01 04:09:52;;;;;;;42.77;28.47;;;;;;;;;;5115304;28;20180;-85
2021/01/01 04:12:25;;;;;;;43.80;27.97;;;;;;;;;;5116866;28;20178;-85
2021/01/01 04:14:54;;;;;;;48.97;27.40;;;;;;;;;;5117109;28;20174;-85
2021/01/01 04:17:25;;;;;;;42.07;27.17;;;;;;;;;;5115316;28;20177;-85
2021/01/01 04:19:56;;;;;;;43.80;27.17;;;;;;;;;;5115287;28;20561;-85
2021/01/01 04:22:28;;;;;;;42.77;27.50;;;;;;;;;;5116528;28;20630;-85
2021/01/01 04:24:57;;;;;;;46.00;28.43;;;;;;;;;;5115025;28;20198;-85
2021/01/01 04:27:28;;;;;;;43.20;25.70;;;;;;;;;;5116511;28;20560;-85
2021/01/01 04:29:54;;;;;;;41.97;27.43;;;;;;;;;;5116183;28;20250;-85
2021/01/01 04:32:26;;;;;;;39.40;25.03;;;;;;;;;;5116087;28;20195;-85
2021/01/01 04:34:55;;;;;;;38.83;24.27;;;;;;;;;;5114959;28;20581;-85
2021/01/01 04:37:26;;;;;;;41.73;25.90;;;;;;;;;;5116096;28;20259;-86
2021/01/01 04:39:57;;;;;;;39.27;25.10;;;;;;;;;;5114684;28;20538;-85
2021/01/01 04:42:28;;;;;;;39.60;26.10;;;;;;;;;;5115784;28;20168;-85
2021/01/01 04:45:01;;;;;;;44.00;27.47;;;;;;;;;;5116027;28;20172;-85
2021/01/01 04:47:34;;;;;;;41.23;26.70;;;;;;;;;;5115929;28;20200;-85
2021/01/01 04:50:04;;;;;;;36.43;24.73;;;;;;;;;;5116727;28;20525;-85
2021/01/01 04:52:46;;;;;;;37.23;25.13;;;;;;;;;;5115771;28;20171;-85
2021/01/01 04:55:15;;;;;;;43.13;27.00;;;;;;;;;;5116123;28;20164;-85
2021/01/01 04:57:45;;;;;;;41.60;26.13;;;;;;;;;;5114696;28;20179;-85
2021/01/01 05:00:14;;;;;;;40.67;25.03;;;;;;;;;;5115629;28;20280;-85
2021/01/01 05:02:49;;;;;;;48.17;27.50;;;;;;;;;;5116013;28;20241;-85
2021/01/01 05:05:15;;;;;;;41.60;26.23;;;;;;;;;;5116088;28;20166;-85
2021/01/01 05:07:48;;;;;;;41.17;27.43;;;;;;;;;;5115455;27;20289;-85
2021/01/01 05:10:21;;;;;;;39.77;26.50;;;;;;;;;;5114261;28;20210;-85
2021/01/01 05:12:56;;;;;;;44.67;26.03;;;;;;;;;;5114827;28;20591;-85
2021/01/01 05:15:40;;;;;;;44.90;26.60;;;;;;;;;;5115680;28;20168;-85
2021/01/01 05:18:29;;;;;;;47.63;27.73;;;;;;;;;;5114035;28;20173;-86
2021/01/01 05:21:03;;;;;;;39.87;26.27;;;;;;;;;;5115394;28;20570;-85
2021/01/01 05:23:40;;;;;;;42.73;26.90;;;;;;;;;;5115497;28;20533;-85
2021/01/01 05:26:14;;;;;;;40.60;28.03;;;;;;;;;;5115166;28;20172;-85
2021/01/01 05:28:54;;;;;;;40.07;26.37;;;;;;;;;;5115075;28;20180;-85
2021/01/01 05:31:29;;;;;;;42.50;27.37;;;;;;;;;;5113519;28;20196;-85
2021/01/01 05:34:03;;;;;;;43.70;28.90;;;;;;;;;;5113828;28;20177;-86
2021/01/01 05:36:36;;;;;;;46.80;29.23;;;;;;;;;;5113810;28;20172;-85
2021/01/01 05:39:07;;;;;;;51.03;28.07;;;;;;;;;;5115302;28;20197;-85
2021/01/01 05:41:40;;;;;;;48.27;30.23;;;;;;;;;;5113637;28;20206;-85
2021/01/01 05:44:16;;;;;;;49.53;29.17;;;;;;;;;;5113521;28;20171;-85
2021/01/01 05:47:04;;;;;;;44.27;29.40;;;;;;;;;;5114709;27;20669;-85
2021/01/01 05:49:35;;;;;;;49.53;28.27;;;;;;;;;;5113988;28;20171;-85
2021/01/01 05:52:16;;;;;;;45.60;27.97;;;;;;;;;;5113413;28;20193;-85
2021/01/01 05:54:48;;;;;;;47.23;29.47;;;;;;;;;;5113449;28;20219;-85
2021/01/01 05:57:25;;;;;;;45.30;28.77;;;;;;;;;;5113758;28;20711;-85
2021/01/01 05:59:55;;;;;;;42.90;27.97;;;;;;;;;;5113295;28;20178;-85
2021/01/01 06:02:30;;;;;;;41.57;27.30;;;;;;;;;;5114629;28;20176;-86
2021/01/01 06:05:01;;;;;;;47.33;28.27;;;;;;;;;;5114908;28;20167;-86
2021/01/01 06:07:32;;;;;;;49.00;28.70;;;;;;;;;;5113082;28;20208;-86
2021/01/01 06:10:10;;;;;;;43.30;26.50;;;;;;;;;;5112843;28;20185;-86
2021/01/01 06:12:52;;;;;;;43.17;28.00;;;;;;;;;;5112940;28;20184;-86
2021/01/01 06:15:25;;;;;;;41.93;28.63;;;;;;;;;;5113027;28;20195;-85
2021/01/01 06:18:08;;;;;;;46.00;30.17;;;;;;;;;;5114445;28;20260;-86
2021/01/01 06:20:40;;;;;;;46.63;29.80;;;;;;;;;;5114389;28;20547;-85
2021/01/01 06:23:18;;;;;;;48.90;30.13;;;;;;;;;;5114004;28;20188;-85
2021/01/01 06:25:47;;;;;;;50.80;30.33;;;;;;;;;;5114737;28;20213;-85
2021/01/01 06:28:15;;;;;;;48.17;29.77;;;;;;;;;;5114038;28;20204;-85
2021/01/01 06:30:48;;;;;;;55.53;30.77;;;;;;;;;;5114130;28;20593;-85
2021/01/01 06:33:20;;;;;;;48.60;29.97;;;;;;;;;;5114207;28;20228;-85
2021/01/01 06:35:55;;;;;;;47.87;30.73;;;;;;;;;;5112939;28;20179;-85
2021/01/01 06:38:40;;;;;;;49.47;29.90;;;;;;;;;;5114302;28;20539;-85
2021/01/01 06:41:35;;;;;;;46.20;29.23;;;;;;;;;;5112144;28;20204;-85
2021/01/01 06:44:09;;;;;;;46.87;28.30;;;;;;;;;;5112058;28;20526;-85
2021/01/01 06:46:41;;;;;;;44.67;27.03;;;;;;;;;;5112511;28;20218;-85
2021/01/01 06:49:35;;;;;;;43.13;27.77;;;;;;;;;;5112732;28;20175;-85
2021/01/01 06:52:16;;;;;;;46.90;28.63;;;;;;;;;;5113917;28;20183;-85
2021/01/01 06:55:01;;;;;;;42.53;27.63;;;;;;;;;;5114178;28;20182;-85
2021/01/01 06:57:52;;;;;;;46.20;28.97;;;;;;;;;;5114206;28;20173;-86
2021/01/01 07:00:41;;;;;;;45.03;26.33;;;;;;;;;;5114368;28;20249;-85
2021/01/01 07:03:31;;;;;;;48.27;28.57;;;;;;;;;;5112663;28;20178;-85
2021/01/01 07:06:05;;;;;;;45.63;29.87;;;;;;;;;;5112640;28;20249;-85
2021/01/01 07:08:45;;;;;;;47.20;29.07;;;;;;;;;;5113792;28;20227;-85
2021/01/01 07:11:17;;;;;;;49.67;30.47;;;;;;;;;;5113901;28;20721;-85
2021/01/01 07:13:47;;;;;;;48.43;28.47;;;;;;;;;;5112780;28;20177;-85
2021/01/01 07:16:23;;;;;;;51.57;29.37;;;;;;;;;;5114088;28;20541;-85
2021/01/01 07:18:59;;;;;;;43.43;26.37;;;;;;;;;;5113921;28;20172;-85
2021/01/01 07:21:31;;;;;;;49.93;28.70;;;;;;;;;;5113536;28;20279;-85
2021/01/01 07:24:01;;;;;;;41.60;26.63;;;;;;;;;;5113617;28;20178;-85
2021/01/01 07:26:35;;;;;;;47.57;29.80;;;;;;;;;;5112176;28;20181;-85
2021/01/01 07:29:09;;;;;;;45.73;27.57;;;;;;;;;;5113513;28;20259;-85
2021/01/01 07:31:36;;;;;;;51.10;31.03;;;;;;;;;;5113664;28;20194;-85
2021/01/01 07:34:14;;;;;;;59.23;31.70;;;;;;;;;;5112221;28;20177;-85
2021/01/01 07:36:51;;;;;;;48.67;30.00;;;;;;;;;;5112282;28;20179;-85
2021/01/01 07:39:18;;;;;;;54.50;33.03;;;;;;;;;;5113504;28;20185;-85
2021/01/01 07:41:51;;;;;;;50.53;32.43;;;;;;;;;;5113531;28;20281;-85
2021/01/01 07:44:25;;;;;;;58.93;32.53;;;;;;;;;;5112115;28;20185;-85
2021/01/01 07:46:58;;;;;;;53.83;31.63;;;;;;;;;;5111976;28;20203;-85
2021/01/01 07:49:39;;;;;;;60.53;32.43;;;;;;;;;;5113436;28;20247;-85
2021/01/01 07:52:11;;;;;;;65.53;36.30;;;;;;;;;;5111914;28;20200;-85
2021/01/01 07:54:49;;;;;;;55.57;32.03;;;;;;;;;;5116868;28;20158;-85
2021/01/01 07:57:25;;;;;;;61.57;34.23;;;;;;;;;;5115731;28;20567;-85
2021/01/01 07:59:55;;;;;;;71.23;35.20;;;;;;;;;;5117272;28;20175;-85
2021/01/01 08:02:28;;;;;;;56.93;34.73;;;;;;;;;;5117257;28;20174;-85
2021/01/01 08:05:01;;;;;;;61.83;33.97;;;;;;;;;;5117267;28;20178;-85
2021/01/01 08:07:31;;;;;;;57.50;33.63;;;;;;;;;;5115429;28;20203;-85
2021/01/01 08:10:05;;;;;;;56.57;33.30;;;;;;;;;;5116591;28;20208;-85
2021/01/01 08:12:39;;;;;;;54.40;33.00;;;;;;;;;;5116766;28;20261;-85
2021/01/01 08:15:10;;;;;;;60.83;32.90;;;;;;;;;;5116276;28;20632;-85
2021/01/01 08:17:42;;;;;;;62.60;34.87;;;;;;;;;;5116651;27;20632;-85
2021/01/01 08:20:21;;;;;;;59.30;34.27;;;;;;;;;;5114889;28;20535;-85
2021/01/01 08:22:54;;;;;;;68.63;33.20;;;;;;;;;;5116298;28;20174;-85
2021/01/01 08:25:29;;;;;;;65.07;36.13;;;;;;;;;;5115110;28;20656;-85
2021/01/01 08:28:06;;;;;;;64.53;35.33;;;;;;;;;;5116303;28;20197;-85
2021/01/01 08:30:33;;;;;;;64.70;34.47;;;;;;;;;;5115498;28;20626;-85
2021/01/01 08:33:05;;;;;;;69.60;36.47;;;;;;;;;;5116318;28;20175;-85
2021/01/01 08:35:31;;;;;;;62.60;34.97;;;;;;;;;;5114775;28;20661;-85
2021/01/01 08:38:01;;;;;;;59.10;34.20;;;;;;;;;;5114902;28;20610;-85
2021/01/01 08:40:32;;;;;;;63.37;35.33;;;;;;;;;;5115777;28;20658;-85
2021/01/01 08:43:04;;;;;;;58.63;33.47;;;;;;;;;;5115794;28;20557;-85
2021/01/01 08:45:35;;;;;;;64.20;36.27;;;;;;;;;;5115831;28;20173;-85
2021/01/01 08:48:11;;;;;;;53.20;30.47;;;;;;;;;;5114320;28;20202;-85
2021/01/01 08:50:56;;;;;;;53.77;31.47;;;;;;;;;;5115538;28;20202;-84
2021/01/01 08:53:27;;;;;;;63.03;32.13;;;;;;;;;;5115917;28;20174;-85
2021/01/01 08:56:00;;;;;;;59.37;30.33;;;;;;;;;;5115765;28;20174;-84
2021/01/01 08:58:29;;;;;;;56.77;31.40;;;;;;;;;;5115796;28;20177;-85
2021/01/01 09:01:16;;;;;;;53.43;28.53;;;;;;;;;;5115551;28;20752;-85
2021/01/01 09:03:50;;;;;;;62.67;33.20;;;;;;;;;;5114365;28;20603;-85
2021/01/01 09:06:21;;;;;;;67.03;32.10;;;;;;;;;;5115080;27;20159;-85
2021/01/01 09:08:48;;;;;;;59.80;31.10;;;;;;;;;;5115398;28;20212;-85
2021/01/01 09:11:25;;;;;;;56.33;32.97;;;;;;;;;;5115179;28;20275;-85
2021/01/01 09:14:02;;;;;;;60.17;32.83;;;;;;;;;;5113910;28;20180;-84
2021/01/01 09:16:30;;;;;;;60.93;32.27;;;;;;;;;;5116814;28;20259;-84
2021/01/01 09:19:11;;;;;;;62.33;32.00;;;;;;;;;;5114711;28;20170;-85
2021/01/01 09:21:41;;;;;;;57.33;32.50;;;;;;;;;;5115069;28;20787;-85
2021/01/01 09:24:09;;;;;;;53.63;28.87;;;;;;;;;;5113802;28;20266;-85
2021/01/01 09:26:40;;;;;;;48.67;27.87;;;;;;;;;;5113937;28;20175;-85
2021/01/01 09:29:08;;;;;;;63.40;31.70;;;;;;;;;;5114626;28;20573;-85
2021/01/01 09:31:37;;;;;;;62.33;33.40;;;;;;;;;;5114389;28;20206;-85
2021/01/01 09:34:04;;;;;;;60.40;31.90;;;;;;;;;;5113707;28;20183;-85
2021/01/01 09:36:37;;;;;;;63.53;34.00;;;;;;;;;;5114791;28;20221;-85
2021/01/01 09:39:06;;;;;;;53.37;31.00;;;;;;;;;;5113565;28;20308;-85
2021/01/01 09:41:32;;;;;;;52.67;31.13;;;;;;;;;;5114611;28;20687;-85
2021/01/01 09:43:58;;;;;;;57.53;30.97;;;;;;;;;;5113409;28;20658;-85
2021/01/01 09:46:25;;;;;;;56.63;29.87;;;;;;;;;;5113171;28;20179;-85
2021/01/01 09:48:51;;;;;;;58.23;31.73;;;;;;;;;;5114699;28;20167;-85
2021/01/01 09:51:17;;;;;;;55.20;32.37;;;;;;;;;;5113253;28;20276;-85
2021/01/01 09:53:43;;;;;;;57.50;31.80;;;;;;;;;;5113200;28;20187;-85
2021/01/01 09:56:09;;;;;;;53.20;31.07;;;;;;;;;;5114673;28;20242;-85
2021/01/01 09:58:35;;;;;;;59.13;30.50;;;;;;;;;;5114577;28;20628;-85
2021/01/01 10:01:01;;;;;;;61.90;32.80;;;;;;;;;;5112956;28;20252;-85
2021/01/01 10:03:27;;;;;;;56.37;32.20;;;;;;;;;;5114357;28;20181;-85
2021/01/01 10:05:53;;;;;;;56.93;33.00;;;;;;;;;;5113044;28;20267;-85
2021/01/01 10:08:23;;;;;;;58.73;31.63;;;;;;;;;;5112778;28;20202;-85
2021/01/01 10:10:56;;;;;;;64.23;35.47;;;;;;;;;;5112626;28;20213;-85
2021/01/01 10:13:25;;;;;;;58.43;33.83;;;;;;;;;;5114051;28;20708;-85
2021/01/01 10:15:52;;;;;;;60.47;33.40;;;;;;;;;;5112663;28;20185;-85
2021/01/01 10:18:25;;;;;;;66.17;35.03;;;;;;;;;;5113993;28;20176;-85
2021/01/01 10:20:58;;;;;;;59.73;34.23;;;;;;;;;;5114203;28;20290;-85
2021/01/01 10:23:31;;;;;;;70.00;35.80;;;;;;;;;;5114303;28;20171;-85
2021/01/01 10:25:58;;;;;;;62.53;35.40;;;;;;;;;;5112502;28;20192;-85
2021/01/01 10:28:30;;;;;;;56.60;34.53;;;;;;;;;;5113840;28;20561;-85
2021/01/01 10:31:05;;;;;;;68.73;36.77;;;;;;;;;;5112339;28;20194;-84
2021/01/01 10:33:32;;;;;;;65.00;36.60;;;;;;;;;;5112554;28;20170;-85
2021/01/01 10:36:05;;;;;;;73.37;37.97;;;;;;;;;;5114135;28;20177;-85
2021/01/01 10:38:38;;;;;;;66.53;37.90;;;;;;;;;;5112468;28;20176;-84
2021/01/01 10:41:14;;;;;;;65.87;35.67;;;;;;;;;;5113955;28;20198;-85
2021/01/01 10:43:51;;;;;;;67.60;38.17;;;;;;;;;;5113884;28;20172;-85
2021/01/01 10:46:24;;;;;;;67.83;36.33;;;;;;;;;;5112408;28;20186;-85
2021/01/01 10:48:50;;;;;;;71.63;37.73;;;;;;;;;;5113897;28;20169;-85
2021/01/01 10:51:23;;;;;;;70.80;41.13;;;;;;;;;;5112218;28;20192;-84
2021/01/01 10:53:58;;;;;;;59.30;36.70;;;;;;;;;;5112236;28;20177;-84
2021/01/01 10:56:28;;;;;;;64.47;39.80;;;;;;;;;;5112854;28;20164;-85
2021/01/01 10:59:00;;;;;;;68.03;40.20;;;;;;;;;;5112232;28;20172;-84
2021/01/01 11:01:35;;;;;;;63.67;40.03;;;;;;;;;;5113326;28;20239;-85
2021/01/01 11:04:05;;;;;;;69.10;42.47;;;;;;;;;;5113779;28;20150;-85
2021/01/01 11:06:45;;;;;;;64.20;40.57;;;;;;;;;;5113606;28;20225;-84
2021/01/01 11:09:14;;;;;;;69.23;44.27;;;;;;;;;;5112243;28;20181;-85
2021/01/01 11:11:47;;;;;;;62.83;42.17;;;;;;;;;;5112014;28;20213;-85
2021/01/01 11:14:26;;;;;;;61.73;42.53;;;;;;;;;;5113463;28;20305;-85
2021/01/01 12:27:08;;;;;;;41.03;29.27;;;;;;;;;;5116349;28;20685;-85
2021/01/01 12:29:41;;;;;;;47.97;31.67;;;;;;;;;;5116296;28;20162;-85
2021/01/01 12:32:11;;;;;;;48.23;32.80;;;;;;;;;;5115613;28;20741;-84
2021/01/01 12:34:37;;;;;;;46.60;31.90;;;;;;;;;;5117665;28;20170;-85
2021/01/01 12:37:04;;;;;;;48.10;32.57;;;;;;;;;;5116798;28;20182;-84
2021/01/01 12:39:30;;;;;;;52.47;33.30;;;;;;;;;;5117321;28;20169;-85
2021/01/01 12:41:56;;;;;;;54.27;35.87;;;;;;;;;;5117494;28;20272;-85
2021/01/01 12:44:22;;;;;;;45.87;29.20;;;;;;;;;;5116414;28;20189;-84
2021/01/01 12:46:51;;;;;;;50.70;33.43;;;;;;;;;;5116021;28;20593;-85
2021/01/01 12:49:17;;;;;;;52.17;32.80;;;;;;;;;;5116439;28;20178;-84
2021/01/01 12:51:43;;;;;;;50.93;31.20;;;;;;;;;;5117028;28;20192;-84
2021/01/01 12:54:09;;;;;;;48.83;30.40;;;;;;;;;;5118130;28;20200;-84
2021/01/01 12:56:36;;;;;;;51.30;31.23;;;;;;;;;;5116676;28;20174;-85
2021/01/01 12:59:03;;;;;;;42.80;29.87;;;;;;;;;;5118380;28;20633;-84
2021/01/01 13:01:33;;;;;;;47.13;29.37;;;;;;;;;;5117777;28;20194;-84
2021/01/01 13:04:01;;;;;;;42.77;28.17;;;;;;;;;;5115505;28;20265;-84
2021/01/01 13:06:28;;;;;;;40.13;26.27;;;;;;;;;;5114628;28;20224;-84
2021/01/01 13:08:58;;;;;;;35.83;25.13;;;;;;;;;;5114782;28;20708;-84
2021/01/01 13:11:31;;;;;;;40.10;28.27;;;;;;;;;;5115768;28;20216;-85
2021/01/01 13:13:58;;;;;;;35.17;24.63;;;;;;;;;;5116491;28;20162;-84
2021/01/01 13:16:29;;;;;;;38.63;26.83;;;;;;;;;;5116421;28;20170;-84
2021/01/01 13:19:05;;;;;;;41.80;27.63;;;;;;;;;;5115180;28;20262;-84
2021/01/01 13:21:35;;;;;;;39.10;27.17;;;;;;;;;;5115285;28;20188;-84
2021/01/01 13:24:07;;;;;;;38.90;27.20;;;;;;;;;;5113625;28;20636;-84
2021/01/01 13:26:39;;;;;;;43.57;27.10;;;;;;;;;;5114917;28;20178;-84
2021/01/01 13:29:11;;;;;;;38.93;27.03;;;;;;;;;;5115012;28;20200;-84
2021/01/01 13:31:44;;;;;;;42.47;26.97;;;;;;;;;;5113550;28;20222;-84
2021/01/01 13:34:18;;;;;;;38.03;27.27;;;;;;;;;;5113692;28;20170;-84
2021/01/01 13:36:53;;;;;;;41.03;28.17;;;;;;;;;;5115066;28;20163;-84
2021/01/01 13:39:31;;;;;;;42.43;29.50;;;;;;;;;;5113499;28;20188;-84
2021/01/01 13:42:04;;;;;;;41.67;26.67;;;;;;;;;;5113363;28;20200;-84
2021/01/01 13:44:33;;;;;;;42.90;27.60;;;;;;;;;;5114726;28;20545;-84
2021/01/01 13:47:01;;;;;;;39.27;26.10;;;;;;;;;;5113258;28;20550;-83
2021/01/01 13:49:33;;;;;;;36.07;26.13;;;;;;;;;;5113232;28;20181;-84
2021/01/01 13:52:04;;;;;;;40.37;28.90;;;;;;;;;;5112935;28;20614;-84
2021/01/01 13:54:41;;;;;;;43.00;26.60;;;;;;;;;;5114862;28;20211;-84
2021/01/01 13:57:12;;;;;;;40.27;27.70;;;;;;;;;;5113283;28;20639;-84
2021/01/01 13:59:42;;;;;;;37.97;26.47;;;;;;;;;;5114646;28;20180;-84
2021/01/01 14:02:11;;;;;;;40.27;26.13;;;;;;;;;;5114379;28;20197;-84
2021/01/01 14:04:41;;;;;;;38.77;27.13;;;;;;;;;;5113060;28;20181;-84
2021/01/01 14:07:08;;;;;;;36.57;26.33;;;;;;;;;;5114977;28;20211;-84
2021/01/01 14:09:36;;;;;;;39.10;26.67;;;;;;;;;;5116238;28;20175;-83
2021/01/01 14:12:05;;;;;;;41.37;27.33;;;;;;;;;;5115445;28;20252;-83
2021/01/01 14:14:31;;;;;;;35.47;25.77;;;;;;;;;;5115268;28;20192;-84
2021/01/01 14:16:57;;;;;;;38.00;26.20;;;;;;;;;;5115208;28;20174;-84
2021/01/01 14:19:31;;;;;;;38.07;26.40;;;;;;;;;;5113680;28;20268;-84
2021/01/01 14:21:58;;;;;;;38.23;26.67;;;;;;;;;;5113582;28;20311;-84
2021/01/01 14:24:30;;;;;;;40.87;27.90;;;;;;;;;;5114760;28;20183;-84
2021/01/01 14:26:59;;;;;;;37.73;27.23;;;;;;;;;;5114644;28;20235;-84
2021/01/01 14:29:31;;;;;;;36.07;26.13;;;;;;;;;;5114652;28;20211;-84
2021/01/01 14:32:05;;;;;;;34.90;25.07;;;;;;;;;;5114659;28;20196;-85
2021/01/01 14:34:35;;;;;;;41.87;28.00;;;;;;;;;;5114098;28;20169;-85
2021/01/01 14:37:08;;;;;;;39.93;27.20;;;;;;;;;;5113844;28;20561;-85
2021/01/01 14:39:37;;;;;;;36.37;27.13;;;;;;;;;;5113976;28;20185;-85
2021/01/01 14:42:04;;;;;;;35.80;25.67;;;;;;;;;;5113784;28;20200;-85
2021/01/01 14:44:39;;;;;;;35.60;26.67;;;;;;;;;;5113767;28;20255;-85
2021/01/01 14:47:11;;;;;;;42.20;29.40;;;;;;;;;;5113742;28;20202;-85
2021/01/01 14:49:45;;;;;;;34.60;26.63;;;;;;;;;;5113839;28;20204;-85
2021/01/01 14:52:20;;;;;;;41.60;28.17;;;;;;;;;;5113619;28;20192;-85
2021/01/01 14:54:56;;;;;;;42.73;29.20;;;;;;;;;;5113793;28;20185;-85
2021/01/01 14:57:31;;;;;;;38.30;26.93;;;;;;;;;;5112651;28;20208;-85
2021/01/01 15:00:05;;;;;;;38.03;26.23;;;;;;;;;;5113596;28;20639;-84
2021/01/01 15:02:38;;;;;;;39.07;27.43;;;;;;;;;;5114003;28;20569;-85
2021/01/01 15:05:11;;;;;;;38.30;28.43;;;;;;;;;;5116514;28;20178;-85
2021/01/01 15:07:46;;;;;;;42.47;28.50;;;;;;;;;;5117572;28;20200;-85
2021/01/01 15:10:17;;;;;;;40.93;30.70;;;;;;;;;;5116257;28;20189;-84
2021/01/01 15:12:51;;;;;;;43.37;28.60;;;;;;;;;;5116321;28;20189;-84
2021/01/01 15:15:23;;;;;;;45.67;29.17;;;;;;;;;;5116346;28;20176;-85
2021/01/01 15:17:53;;;;;;;43.00;29.33;;;;;;;;;;5117948;28;20156;-85
2021/01/01 15:20:30;;;;;;;42.60;27.47;;;;;;;;;;5116061;28;20220;-85
2021/01/01 15:23:06;;;;;;;39.00;28.93;;;;;;;;;;5117314;28;20186;-85
2021/01/01 15:25:38;;;;;;;39.93;26.23;;;;;;;;;;5116940;28;20272;-85
2021/01/01 15:28:10;;;;;;;45.17;30.50;;;;;;;;;;5116027;28;20202;-85
2021/01/01 15:30:41;;;;;;;43.03;30.40;;;;;;;;;;5117488;28;20221;-85
2021/01/01 15:33:14;;;;;;;46.17;30.67;;;;;;;;;;5115990;28;20174;-85
2021/01/01 15:35:51;;;;;;;38.80;26.53;;;;;;;;;;5116027;28;20188;-84
2021/01/01 15:38:25;;;;;;;42.97;30.87;;;;;;;;;;5115990;28;20181;-85
2021/01/01 15:40:58;;;;;;;45.53;31.07;;;;;;;;;;5115878;28;20208;-85
2021/01/01 15:43:29;;;;;;;46.93;31.93;;;;;;;;;;5117193;28;20313;-85
2021/01/01 15:46:01;;;;;;;48.97;32.07;;;;;;;;;;5116420;28;20181;-85
2021/01/01 15:48:33;;;;;;;42.90;30.00;;;;;;;;;;5115656;28;20292;-85
2021/01/01 15:51:03;;;;;;;48.33;29.80;;;;;;;;;;5115627;28;20333;-85
2021/01/01 15:53:34;;;;;;;42.27;28.33;;;;;;;;;;5117177;28;20254;-84
2021/01/01 15:56:09;;;;;;;37.37;27.93;;;;;;;;;;5115490;28;20202;-84